Time;durP1;ratioP1;P1;durP2;ratioP2;P2;SDS_P1;SDS_P2;PMS_P1;PMS_P2;Temp;Humidity;BMP_temperature;BMP_pressure;BME280_temperature;BME280_humidity;BME280_pressure;Samples;Min_cycle;Max_cycle;Signal;HPM_P1;HPM_P2
2023/03/02 00:01:08;;;;;;;7.22;2.65;;;4.40;99.90;;;;;;6156948;23;20032;-86
2023/03/02 00:03:36;;;;;;;11.77;3.33;;;4.40;99.90;;;;;;6156535;23;20096;-89
2023/03/02 00:06:03;;;;;;;7.80;2.90;;;4.40;99.90;;;;;;6183392;23;20028;-87
2023/03/02 00:08:30;;;;;;;6.07;3.10;;;4.40;99.90;;;;;;6157306;23;20318;-87
2023/03/02 00:10:57;;;;;;;5.18;2.33;;;4.30;99.90;;;;;;6157763;23;20012;-86
2023/03/02 00:13:23;;;;;;;6.82;3.08;;;4.30;99.90;;;;;;6157568;23;20371;-87
2023/03/02 00:15:49;;;;;;;7.25;3.65;;;4.40;99.90;;;;;;6157924;23;20126;-86
2023/03/02 00:18:14;;;;;;;7.53;3.65;;;4.40;99.90;;;;;;6159374;23;20040;-87
2023/03/02 00:20:40;;;;;;;6.65;3.35;;;4.40;99.90;;;;;;6185644;23;20001;-86
2023/03/02 00:23:05;;;;;;;9.40;3.17;;;4.40;99.90;;;;;;6159326;23;20005;-86
2023/03/02 00:25:31;;;;;;;9.63;3.05;;;4.40;99.90;;;;;;6159316;23;20092;-86
2023/03/02 00:27:57;;;;;;;12.82;3.95;;;4.40;99.90;;;;;;6159100;23;20024;-87
2023/03/02 00:30:22;;;;;;;8.48;2.70;;;4.40;99.90;;;;;;6159762;23;20009;-87
2023/03/02 00:32:48;;;;;;;6.13;2.80;;;4.40;99.90;;;;;;6159263;23;20012;-88
2023/03/02 00:35:14;;;;;;;13.07;3.25;;;4.40;99.90;;;;;;6159242;23;20012;-87
2023/03/02 00:37:40;;;;;;;9.35;3.25;;;4.40;99.90;;;;;;6159441;23;20055;-87
2023/03/02 00:40:10;;;;;;;6.47;3.08;;;4.40;99.90;;;;;;6158918;23;20012;-87
2023/03/02 00:42:36;;;;;;;7.35;3.33;;;4.40;99.90;;;;;;6159535;23;20001;-86
2023/03/02 00:45:04;;;;;;;13.05;3.58;;;4.40;99.90;;;;;;6158788;23;20020;-87
2023/03/02 00:47:33;;;;;;;15.52;3.90;;;4.40;99.90;;;;;;6159032;23;20013;-87
2023/03/02 00:49:59;;;;;;;7.85;3.50;;;4.40;99.90;;;;;;6158965;23;20441;-86
2023/03/02 00:52:25;;;;;;;14.45;4.10;;;4.40;99.90;;;;;;6159179;23;20045;-87
2023/03/02 00:54:50;;;;;;;14.30;4.18;;;4.40;99.90;;;;;;6158973;23;20005;-87
2023/03/02 00:57:20;;;;;;;9.75;3.83;;;4.40;99.90;;;;;;6185584;23;20433;-88
2023/03/02 00:59:45;;;;;;;13.70;4.97;;;4.40;99.90;;;;;;6158748;23;20019;-87
2023/03/02 01:02:11;;;;;;;11.23;5.07;;;4.30;99.90;;;;;;6159173;23;20388;-87
2023/03/02 01:04:39;;;;;;;21.33;5.10;;;4.40;99.90;;;;;;6159115;23;20395;-87
2023/03/02 01:07:11;;;;;;;14.88;5.22;;;4.40;99.90;;;;;;6158949;23;20040;-87
2023/03/02 01:09:38;;;;;;;24.05;7.63;;;4.40;99.90;;;;;;6158744;23;20013;-87
2023/03/02 01:12:08;;;;;;;18.13;6.63;;;4.40;99.90;;;;;;6159689;23;20001;-87
2023/03/02 01:14:35;;;;;;;19.37;7.80;;;4.40;99.90;;;;;;6159173;23;20021;-87
2023/03/02 01:17:01;;;;;;;17.90;7.43;;;4.40;99.90;;;;;;6159272;23;20001;-87
2023/03/02 01:19:26;;;;;;;19.75;8.38;;;4.40;99.90;;;;;;6159082;23;20473;-87
2023/03/02 01:21:52;;;;;;;20.50;6.50;;;4.40;99.90;;;;;;6159160;23;20424;-86
2023/03/02 01:24:17;;;;;;;18.15;8.63;;;4.40;99.90;;;;;;6158970;23;20065;-88
2023/03/02 01:26:43;;;;;;;20.88;7.55;;;4.40;99.90;;;;;;6158648;23;20001;-87
2023/03/02 01:29:10;;;;;;;29.98;8.35;;;4.40;99.90;;;;;;6158498;23;20021;-87
2023/03/02 01:31:36;;;;;;;18.92;7.10;;;4.50;99.90;;;;;;6158993;23;20008;-87
2023/03/02 01:34:02;;;;;;;19.25;8.65;;;4.40;99.90;;;;;;6159289;23;20009;-87
2023/03/02 01:36:27;;;;;;;21.52;7.80;;;4.50;99.90;;;;;;6159151;23;20052;-87
2023/03/02 01:38:53;;;;;;;21.88;7.80;;;4.60;99.90;;;;;;6158683;23;20013;-88
2023/03/02 01:41:19;;;;;;;16.73;7.07;;;4.50;99.90;;;;;;6158647;23;20043;-88
2023/03/02 01:43:45;;;;;;;23.05;8.13;;;4.60;99.90;;;;;;6158467;23;20004;-87
2023/03/02 01:46:23;;;;;;;17.30;7.40;;;4.60;99.90;;;;;;6158453;23;20028;-86
2023/03/02 01:49:03;;;;;;;17.50;6.88;;;4.60;99.90;;;;;;6158435;23;20096;-85
2023/03/02 01:51:33;;;;;;;22.63;7.07;;;4.60;99.90;;;;;;6158763;23;20033;-85
2023/03/02 01:54:15;;;;;;;19.00;6.38;;;4.60;99.90;;;;;;6158521;23;20092;-87
2023/03/02 01:56:44;;;;;;;16.60;6.50;;;4.60;99.90;;;;;;6184356;23;20087;-84
2023/03/02 01:59:15;;;;;;;21.30;6.13;;;4.60;99.90;;;;;;6158917;23;20004;-87
2023/03/02 02:01:46;;;;;;;13.65;6.30;;;4.60;99.90;;;;;;6158122;23;20024;-89
2023/03/02 02:04:12;;;;;;;18.42;6.32;;;4.60;99.90;;;;;;6158101;23;20079;-89
2023/03/02 02:06:46;;;;;;;14.57;6.22;;;4.60;99.90;;;;;;6184791;23;20069;-88
2023/03/02 02:09:15;;;;;;;16.00;5.68;;;4.60;99.90;;;;;;6158509;23;20025;-86
2023/03/02 02:11:42;;;;;;;15.55;6.45;;;4.60;99.90;;;;;;6158543;23;20514;-86
2023/03/02 02:14:08;;;;;;;17.75;6.60;;;4.50;99.90;;;;;;6158982;23;20005;-86
2023/03/02 02:16:36;;;;;;;14.60;6.10;;;4.50;99.90;;;;;;6158968;23;20009;-87
2023/03/02 02:19:09;;;;;;;14.43;6.05;;;4.50;99.90;;;;;;6159258;23;20013;-87
2023/03/02 02:21:35;;;;;;;12.00;5.85;;;4.50;99.90;;;;;;6158499;23;20009;-87
2023/03/02 02:24:12;;;;;;;25.00;6.15;;;4.50;99.90;;;;;;6158872;23;20013;-87
2023/03/02 02:26:45;;;;;;;11.65;5.00;;;4.50;99.90;;;;;;6159879;23;20005;-85
2023/03/02 02:29:25;;;;;;;15.75;6.07;;;4.50;99.90;;;;;;6166809;23;20013;-87
2023/03/02 02:32:05;;;;;;;13.68;5.68;;;4.50;99.90;;;;;;6168418;23;19997;-88
2023/03/02 02:34:43;;;;;;;18.95;6.55;;;4.50;99.90;;;;;;6195660;23;20448;-88
2023/03/02 02:37:26;;;;;;;20.08;6.07;;;4.50;99.90;;;;;;6165202;23;20001;-87
2023/03/02 02:39:52;;;;;;;18.65;6.65;;;4.50;99.90;;;;;;6189420;23;20072;-85
2023/03/02 02:42:24;;;;;;;14.35;5.82;;;4.50;99.90;;;;;;6162395;23;20005;-87
2023/03/02 02:44:51;;;;;;;16.42;5.72;;;4.50;99.90;;;;;;6158836;23;20004;-87
2023/03/02 02:47:20;;;;;;;13.10;5.60;;;4.50;99.90;;;;;;6158586;23;20052;-87
2023/03/02 02:49:49;;;;;;;10.02;5.50;;;4.50;99.90;;;;;;6158524;23;20017;-87
2023/03/02 02:52:18;;;;;;;16.10;5.88;;;4.40;99.90;;;;;;6158287;23;20005;-88
2023/03/02 02:54:47;;;;;;;10.80;5.35;;;4.50;99.90;;;;;;6158354;23;20508;-88
2023/03/02 02:57:16;;;;;;;14.88;6.05;;;4.40;99.90;;;;;;6158386;23;20012;-88
2023/03/02 03:00:14;;;;;;;17.42;6.20;;;4.40;99.90;;;;;;6158427;23;20088;-88
2023/03/02 03:02:44;;;;;;;12.30;5.00;;;4.40;99.90;;;;;;6182245;23;20012;-87
2023/03/02 03:05:16;;;;;;;18.03;7.67;;;4.40;99.90;;;;;;6158008;23;20005;-87
2023/03/02 03:07:42;;;;;;;14.07;5.05;;;4.40;99.90;;;;;;6157680;23;20013;-86
2023/03/02 03:10:21;;;;;;;13.82;5.10;;;4.40;99.90;;;;;;6158010;23;20570;-87
2023/03/02 03:12:47;;;;;;;15.40;5.65;;;4.40;99.90;;;;;;6157988;23;20049;-87
2023/03/02 03:15:13;;;;;;;14.68;4.97;;;4.40;99.90;;;;;;6157727;23;20447;-87
2023/03/02 03:17:45;;;;;;;12.18;5.72;;;4.40;99.90;;;;;;6157944;23;20021;-87
2023/03/02 03:20:15;;;;;;;;;;;4.40;99.90;;;;;;6158307;23;20052;-85
2023/03/02 03:22:40;;;;;;;13.48;5.18;;;4.40;99.90;;;;;;6182602;23;20308;-88
2023/03/02 03:25:06;;;;;;;19.27;5.95;;;4.50;99.90;;;;;;6157429;23;20062;-88
2023/03/02 03:27:32;;;;;;;22.63;6.68;;;4.50;99.90;;;;;;6157497;23;20008;-86
2023/03/02 03:30:00;;;;;;;21.02;7.07;;;4.50;99.90;;;;;;6157788;23;20360;-87
2023/03/02 03:32:26;;;;;;;20.60;7.25;;;4.50;99.90;;;;;;6157839;23;20033;-87
2023/03/02 03:34:52;;;;;;;13.90;6.20;;;4.60;99.90;;;;;;6184243;23;20456;-86
2023/03/02 03:37:19;;;;;;;23.23;9.10;;;4.50;99.90;;;;;;6157610;23;20035;-85
2023/03/02 03:39:45;;;;;;;18.85;7.00;;;4.60;99.90;;;;;;6157371;23;20007;-86
2023/03/02 03:42:11;;;;;;;16.88;7.85;;;4.60;99.90;;;;;;6157499;23;20409;-86
2023/03/02 03:44:36;;;;;;;19.23;7.32;;;4.60;99.90;;;;;;6157798;23;20025;-84
2023/03/02 03:47:02;;;;;;;25.10;7.82;;;4.50;99.90;;;;;;6157479;23;20016;-87
2023/03/02 03:49:28;;;;;;;17.60;7.60;;;4.50;99.90;;;;;;6157332;23;20013;-85
2023/03/02 03:51:54;;;;;;;18.25;8.20;;;4.50;99.90;;;;;;6159034;23;20001;-85
2023/03/02 03:54:19;;;;;;;13.55;6.63;;;4.50;99.90;;;;;;6159493;23;20012;-85
2023/03/02 03:56:47;;;;;;;22.10;8.65;;;4.50;99.90;;;;;;6159510;23;20012;-86
2023/03/02 03:59:18;;;;;;;19.38;8.75;;;4.50;99.90;;;;;;6159280;23;20011;-86
2023/03/02 04:01:50;;;;;;;20.75;7.00;;;4.50;99.90;;;;;;6159349;23;20016;-85
2023/03/02 04:04:34;;;;;;;19.85;8.18;;;4.50;99.90;;;;;;6159058;23;20017;-86
2023/03/02 04:07:00;;;;;;;18.58;7.90;;;4.50;99.90;;;;;;6159145;23;20005;-87
2023/03/02 04:09:26;;;;;;;16.80;8.40;;;4.40;99.90;;;;;;6159283;23;20017;-88
2023/03/02 04:11:53;;;;;;;17.60;7.85;;;4.40;99.90;;;;;;6159448;23;20036;-86
2023/03/02 04:14:20;;;;;;;17.02;7.95;;;4.40;99.90;;;;;;6159832;23;20013;-86
2023/03/02 04:16:46;;;;;;;15.73;6.78;;;4.50;99.90;;;;;;6159057;23;20005;-87
2023/03/02 04:19:13;;;;;;;16.45;6.43;;;4.40;99.90;;;;;;6159096;23;20012;-87
2023/03/02 04:21:41;;;;;;;20.05;7.22;;;4.40;99.90;;;;;;6158846;23;20380;-86
2023/03/02 04:24:08;;;;;;;14.85;6.38;;;4.40;99.90;;;;;;6159182;23;20009;-87
2023/03/02 04:26:35;;;;;;;15.52;7.50;;;4.40;99.90;;;;;;6159052;23;20092;-87
2023/03/02 04:29:02;;;;;;;16.77;7.75;;;4.40;99.90;;;;;;6158812;23;20025;-86
2023/03/02 04:31:27;;;;;;;17.40;8.18;;;4.40;99.90;;;;;;6158979;23;20344;-88
2023/03/02 04:33:53;;;;;;;17.67;9.02;;;4.40;99.90;;;;;;6159713;23;20036;-87
2023/03/02 04:36:19;;;;;;;16.02;7.70;;;4.40;99.90;;;;;;6158621;23;20413;-87
2023/03/02 04:38:45;;;;;;;19.13;8.85;;;4.40;99.90;;;;;;6158874;23;20051;-87
2023/03/02 04:41:11;;;;;;;23.58;8.90;;;4.40;99.90;;;;;;6159302;23;20033;-86
2023/03/02 04:43:37;;;;;;;19.80;8.43;;;4.40;99.90;;;;;;6158901;23;20059;-87
2023/03/02 04:46:03;;;;;;;19.35;8.75;;;4.40;99.90;;;;;;6158787;23;20001;-86
2023/03/02 04:48:29;;;;;;;22.45;9.13;;;4.40;99.90;;;;;;6158711;23;20017;-87
2023/03/02 04:50:54;;;;;;;22.13;8.68;;;4.40;99.90;;;;;;6159072;23;20045;-87
2023/03/02 04:53:20;;;;;;;23.75;9.63;;;4.40;99.90;;;;;;6159368;23;20001;-87
2023/03/02 04:55:46;;;;;;;25.30;9.65;;;4.40;99.90;;;;;;6158761;23;20352;-87
2023/03/02 04:58:12;;;;;;;27.75;10.27;;;4.30;99.90;;;;;;6158740;23;20079;-87
2023/03/02 05:00:38;;;;;;;23.65;9.98;;;4.30;99.90;;;;;;6158992;23;20001;-87
2023/03/02 05:03:04;;;;;;;22.15;9.55;;;4.30;99.90;;;;;;6157977;23;20009;-87
2023/03/02 05:05:31;;;;;;;25.13;10.55;;;4.30;99.90;;;;;;6158704;23;20071;-90
2023/03/02 05:07:59;;;;;;;22.75;10.25;;;4.30;99.90;;;;;;6158817;23;20012;-88
2023/03/02 05:10:27;;;;;;;20.58;10.77;;;4.30;99.90;;;;;;6158989;23;20032;-88
2023/03/02 05:13:10;;;;;;;22.23;10.40;;;4.30;99.90;;;;;;6159243;23;20011;-86
2023/03/02 05:15:39;;;;;;;15.15;8.18;;;4.30;99.90;;;;;;6159183;23;20009;-86
2023/03/02 05:18:07;;;;;;;21.98;9.73;;;4.40;99.90;;;;;;6159012;23;20009;-88
2023/03/02 05:20:34;;;;;;;24.70;10.40;;;4.40;99.90;;;;;;6159204;23;20004;-87
2023/03/02 05:23:04;;;;;;;19.58;9.75;;;4.40;99.90;;;;;;6158917;23;20437;-86
2023/03/02 05:25:32;;;;;;;21.10;10.02;;;4.40;99.90;;;;;;6158992;23;20001;-87
2023/03/02 05:27:57;;;;;;;25.35;10.00;;;4.40;99.90;;;;;;6158562;23;20009;-87
2023/03/02 05:30:23;;;;;;;20.33;10.05;;;4.50;99.90;;;;;;6159095;23;20078;-87
2023/03/02 05:32:50;;;;;;;13.00;7.40;;;4.50;99.90;;;;;;6159122;23;20012;-86
2023/03/02 05:35:17;;;;;;;17.05;9.55;;;4.50;99.90;;;;;;6158489;23;20092;-86
2023/03/02 05:37:43;;;;;;;18.48;10.45;;;4.50;99.90;;;;;;6158520;23;20460;-88
2023/03/02 05:40:15;;;;;;;18.95;10.30;;;4.50;99.90;;;;;;6158591;23;20499;-87
2023/03/02 05:42:41;;;;;;;21.02;10.05;;;4.50;99.90;;;;;;6158315;23;20005;-86
2023/03/02 05:45:12;;;;;;;26.13;10.60;;;4.50;99.90;;;;;;6158245;23;20028;-87
2023/03/02 05:47:37;;;;;;;20.38;10.05;;;4.40;99.90;;;;;;6158101;23;20001;-87
2023/03/02 05:50:03;;;;;;;21.58;10.10;;;4.40;99.90;;;;;;6158392;23;20013;-87
2023/03/02 05:52:29;;;;;;;22.92;9.93;;;4.40;99.90;;;;;;6158516;23;20009;-86
2023/03/02 05:54:54;;;;;;;14.38;8.40;;;4.40;99.90;;;;;;6158399;23;20016;-88
2023/03/02 05:57:20;;;;;;;20.70;9.00;;;4.40;99.90;;;;;;6158138;23;20009;-86
2023/03/02 05:59:46;;;;;;;15.30;8.30;;;4.40;99.90;;;;;;6157993;23;20429;-88
2023/03/02 06:02:12;;;;;;;16.83;9.77;;;4.40;99.90;;;;;;6158182;23;20064;-87
2023/03/02 06:04:41;;;;;;;13.50;8.07;;;4.30;99.90;;;;;;6157790;23;20017;-86
2023/03/02 06:07:11;;;;;;;17.58;8.27;;;4.40;99.90;;;;;;6158136;23;20001;-86
2023/03/02 06:09:38;;;;;;;23.88;8.57;;;4.30;99.90;;;;;;6157976;23;20055;-87
2023/03/02 06:12:04;;;;;;;18.55;8.90;;;4.40;99.90;;;;;;6158549;23;20084;-86
2023/03/02 06:14:30;;;;;;;19.05;8.52;;;4.30;99.90;;;;;;6158269;23;20116;-85
2023/03/02 06:16:56;;;;;;;15.50;7.68;;;4.30;99.90;;;;;;6158470;23;20028;-86
2023/03/02 06:19:22;;;;;;;18.98;8.32;;;4.30;99.90;;;;;;6157317;23;20381;-86
2023/03/02 06:21:47;;;;;;;15.23;8.00;;;4.30;99.90;;;;;;6157865;23;20013;-85
2023/03/02 06:24:13;;;;;;;19.38;7.75;;;4.30;99.90;;;;;;6157265;23;20009;-86
2023/03/02 06:26:38;;;;;;;12.25;6.70;;;4.30;99.90;;;;;;6157615;23;20027;-88
2023/03/02 06:29:04;;;;;;;15.05;7.25;;;4.30;99.90;;;;;;6157701;23;20107;-87
2023/03/02 06:31:30;;;;;;;16.23;7.72;;;4.30;99.90;;;;;;6157567;23;20499;-87
2023/03/02 06:33:56;;;;;;;16.67;7.03;;;4.30;99.90;;;;;;6157029;23;20032;-88
2023/03/02 06:36:22;;;;;;;13.20;6.55;;;4.30;99.90;;;;;;6157085;23;20052;-85
2023/03/02 06:38:48;;;;;;;14.32;6.50;;;4.30;99.90;;;;;;6157170;23;20009;-87
2023/03/02 06:41:14;;;;;;;14.70;6.78;;;4.40;99.90;;;;;;6157049;23;20313;-87
2023/03/02 06:43:40;;;;;;;12.05;5.97;;;4.30;99.90;;;;;;6156438;23;20159;-89
2023/03/02 06:46:05;;;;;;;13.73;6.72;;;4.40;99.90;;;;;;6156715;23;20005;-89
2023/03/02 06:48:31;;;;;;;11.70;7.13;;;4.40;99.90;;;;;;6155506;23;20451;-87
2023/03/02 06:50:57;;;;;;;14.00;6.13;;;4.40;99.90;;;;;;6156355;23;20132;-87
2023/03/02 06:53:23;;;;;;;14.13;5.70;;;4.50;99.90;;;;;;6156812;23;20381;-87
2023/03/02 06:55:49;;;;;;;12.77;6.50;;;4.50;99.90;;;;;;6157775;23;20420;-86
2023/03/02 06:58:15;;;;;;;14.82;6.80;;;4.50;99.90;;;;;;6157210;23;20032;-87
2023/03/02 07:00:40;;;;;;;16.58;7.88;;;4.40;99.90;;;;;;6157205;23;20317;-87
2023/03/02 07:03:06;;;;;;;14.70;6.85;;;4.50;99.90;;;;;;6157685;23;20029;-87
2023/03/02 07:05:32;;;;;;;20.00;8.50;;;4.40;99.90;;;;;;6162742;23;20020;-88
2023/03/02 07:07:58;;;;;;;25.88;9.07;;;4.40;99.90;;;;;;6162062;23;20040;-86
2023/03/02 07:10:24;;;;;;;17.05;9.13;;;4.40;99.90;;;;;;6160387;23;20005;-86
2023/03/02 07:12:51;;;;;;;21.20;9.30;;;4.40;99.90;;;;;;6160478;23;20063;-88
2023/03/02 07:15:17;;;;;;;18.70;9.90;;;4.30;99.90;;;;;;6159399;23;20040;-86
2023/03/02 07:17:44;;;;;;;17.77;9.23;;;4.40;99.90;;;;;;6160065;23;20344;-87
2023/03/02 07:20:11;;;;;;;19.90;10.43;;;4.30;99.90;;;;;;6158781;23;20008;-87
2023/03/02 07:22:37;;;;;;;20.20;10.10;;;4.30;99.90;;;;;;6158128;23;20001;-87
2023/03/02 07:25:04;;;;;;;15.18;9.95;;;4.30;99.90;;;;;;6158422;23;20013;-87
2023/03/02 07:27:29;;;;;;;22.20;11.48;;;4.20;99.90;;;;;;6157110;23;19997;-87
2023/03/02 07:29:55;;;;;;;18.75;9.30;;;4.30;99.90;;;;;;6157328;23;20327;-86
2023/03/02 07:32:21;;;;;;;16.35;9.27;;;4.30;99.90;;;;;;6157270;23;20024;-86
2023/03/02 07:34:46;;;;;;;18.38;9.88;;;4.20;99.90;;;;;;6156754;23;20013;-88
2023/03/02 07:37:12;;;;;;;13.13;8.25;;;4.20;99.90;;;;;;6156946;23;20096;-86
2023/03/02 07:39:37;;;;;;;16.10;8.48;;;4.20;99.90;;;;;;6156858;23;20024;-87
2023/03/02 07:42:05;;;;;;;18.33;8.27;;;4.20;99.90;;;;;;6157235;23;20096;-87
2023/03/02 07:44:31;;;;;;;16.27;9.15;;;4.20;99.90;;;;;;6156660;23;20005;-86
2023/03/02 07:46:57;;;;;;;11.35;7.45;;;4.20;99.90;;;;;;6157051;23;20640;-86
2023/03/02 07:49:23;;;;;;;15.57;8.68;;;4.30;99.90;;;;;;6158290;23;20437;-87
2023/03/02 07:51:48;;;;;;;15.27;9.13;;;4.20;99.90;;;;;;6158365;23;20104;-88
2023/03/02 07:54:14;;;;;;;11.55;7.60;;;4.30;99.90;;;;;;6158318;23;20009;-87
2023/03/02 07:56:40;;;;;;;14.40;8.80;;;4.30;99.90;;;;;;6159169;23;20502;-87
2023/03/02 07:59:05;;;;;;;15.82;8.50;;;4.30;99.90;;;;;;6157626;23;20492;-89
2023/03/02 08:01:31;;;;;;;14.57;7.68;;;4.30;99.90;;;;;;6159787;23;20013;-92
2023/03/02 08:03:57;;;;;;;12.70;7.40;;;4.30;99.90;;;;;;6157219;23;20040;-92
2023/03/02 08:06:22;;;;;;;12.68;7.32;;;4.40;99.90;;;;;;6158375;23;20336;-92
2023/03/02 08:08:48;;;;;;;11.27;6.93;;;4.40;99.90;;;;;;6159891;23;20058;-91
2023/03/02 08:11:16;;;;;;;14.50;7.50;;;4.40;99.90;;;;;;6159934;23;20056;-91
2023/03/02 08:13:43;;;;;;;13.63;7.38;;;4.50;99.90;;;;;;6159768;23;20441;-91
2023/03/02 08:16:11;;;;;;;11.65;6.53;;;4.50;99.90;;;;;;6159587;23;20084;-92
2023/03/02 08:18:37;;;;;;;9.15;5.80;;;4.50;99.90;;;;;;6159532;23;20172;-91
2023/03/02 08:21:09;;;;;;;11.63;7.10;;;4.50;99.90;;;;;;6158491;23;20008;-93
2023/03/02 08:23:35;;;;;;;8.95;5.72;;;4.50;99.90;;;;;;6159874;23;20013;-92
2023/03/02 08:26:01;;;;;;;10.63;5.97;;;4.50;99.90;;;;;;6158518;23;20024;-92
2023/03/02 08:28:26;;;;;;;8.82;5.15;;;4.50;99.90;;;;;;6158791;23;20009;-92
2023/03/02 08:31:00;;;;;;;11.38;5.28;;;4.50;99.90;;;;;;6158711;23;20502;-94
2023/03/02 08:33:27;;;;;;;11.02;5.18;;;4.50;99.90;;;;;;6158909;23;20009;-91
2023/03/02 08:35:58;;;;;;;9.20;5.22;;;4.50;99.90;;;;;;6159300;23;20369;-93
2023/03/02 08:38:23;;;;;;;10.25;5.72;;;4.50;99.90;;;;;;6159939;23;20436;-93
2023/03/02 08:40:51;;;;;;;11.82;4.95;;;4.60;99.90;;;;;;6160668;23;20089;-93
2023/03/02 08:43:20;;;;;;;8.93;5.85;;;4.60;99.90;;;;;;6160029;23;20052;-93
2023/03/02 08:45:54;;;;;;;13.10;5.40;;;4.60;99.90;;;;;;6160056;23;20024;-92
2023/03/02 08:48:21;;;;;;;7.43;5.75;;;4.60;99.90;;;;;;6160236;23;20052;-93
2023/03/02 08:51:07;;;;;;;9.48;5.65;;;4.70;99.90;;;;;;6161333;23;20044;-92
2023/03/02 08:53:36;;;;;;;8.02;5.30;;;4.70;99.90;;;;;;6161198;23;20024;-92
2023/03/02 08:56:01;;;;;;;10.38;5.63;;;4.80;99.90;;;;;;6161163;23;20028;-91
2023/03/02 08:58:27;;;;;;;7.72;4.70;;;4.80;99.90;;;;;;6160198;23;20027;-92
2023/03/02 09:00:53;;;;;;;9.93;5.28;;;4.70;99.90;;;;;;6162217;23;20021;-93
2023/03/02 09:03:19;;;;;;;6.38;4.43;;;4.70;99.90;;;;;;6165017;23;20345;-92
2023/03/02 09:05:45;;;;;;;4.65;3.85;;;4.70;99.90;;;;;;6173107;23;20371;-92
2023/03/02 09:08:11;;;;;;;7.75;4.93;;;4.80;99.90;;;;;;6161593;23;20017;-91
2023/03/02 09:10:38;;;;;;;8.57;5.45;;;4.80;99.90;;;;;;6162585;23;20440;-92
2023/03/02 09:13:04;;;;;;;8.65;4.88;;;4.80;99.90;;;;;;6162057;23;20095;-92
2023/03/02 09:15:30;;;;;;;7.22;4.50;;;4.80;99.90;;;;;;6167199;23;20432;-93
2023/03/02 09:17:56;;;;;;;11.40;5.15;;;4.80;99.90;;;;;;6164200;23;20084;-93
2023/03/02 09:20:22;;;;;;;9.23;4.57;;;4.80;99.90;;;;;;6161131;23;20471;-92
2023/03/02 09:22:49;;;;;;;9.38;5.50;;;4.80;99.90;;;;;;6160487;23;20009;-91
2023/03/02 09:25:16;;;;;;;11.35;5.13;;;4.80;99.90;;;;;;6160980;23;20021;-91
2023/03/02 09:27:42;;;;;;;6.95;4.40;;;4.80;99.90;;;;;;6160551;23;20020;-92
2023/03/02 09:30:08;;;;;;;8.23;4.60;;;4.80;99.90;;;;;;6161025;23;20037;-93
2023/03/02 09:32:34;;;;;;;9.45;4.97;;;4.80;99.90;;;;;;6160771;23;20008;-92
2023/03/02 09:35:00;;;;;;;6.90;4.28;;;4.90;99.90;;;;;;6160998;23;20259;-92
2023/03/02 09:37:27;;;;;;;7.30;4.78;;;4.90;99.90;;;;;;6160992;23;20062;-92
2023/03/02 09:39:52;;;;;;;7.03;4.07;;;4.90;99.90;;;;;;6160739;23;20001;-92
2023/03/02 09:42:40;;;;;;;4.22;3.85;;;5.00;99.90;;;;;;6160940;23;20043;-91
2023/03/02 09:45:44;;;;;;;7.65;4.35;;;5.00;99.90;;;;;;6161274;23;20005;-92
2023/03/02 09:48:19;;;;;;;6.25;4.03;;;5.00;99.90;;;;;;6133864;23;20009;-91
2023/03/02 09:50:56;;;;;;;6.15;4.10;;;5.00;99.90;;;;;;6159332;23;20064;-92
2023/03/02 09:53:43;;;;;;;10.82;5.30;;;5.00;99.90;;;;;;6160083;23;20009;-92
2023/03/02 09:56:15;;;;;;;10.93;6.13;;;5.00;99.90;;;;;;6159525;23;20005;-93
2023/03/02 09:58:54;;;;;;;10.32;6.28;;;5.00;99.90;;;;;;6160293;23;20005;-92
2023/03/02 10:01:34;;;;;;;8.43;6.20;;;5.00;99.90;;;;;;6159902;23;20008;-92
2023/03/02 10:04:15;;;;;;;6.80;5.60;;;5.00;99.90;;;;;;6160615;23;20025;-93
2023/03/02 10:06:41;;;;;;;7.57;6.20;;;5.00;99.90;;;;;;6161191;23;20029;-92
2023/03/02 10:09:09;;;;;;;8.45;6.72;;;5.00;99.90;;;;;;6160895;23;20024;-94
2023/03/02 10:12:00;;;;;;;9.48;6.32;;;5.00;99.90;;;;;;6160977;23;20096;-92
2023/03/02 10:14:35;;;;;;;11.43;7.97;;;5.00;99.90;;;;;;6161590;23;20321;-90
2023/03/02 10:17:27;;;;;;;11.20;7.22;;;5.10;99.90;;;;;;6161037;23;20072;-92
2023/03/02 10:19:59;;;;;;;8.55;6.60;;;5.10;99.90;;;;;;6159281;23;20009;-91
2023/03/02 10:22:35;;;;;;;11.10;8.30;;;5.20;99.90;;;;;;6187017;23;20001;-91
2023/03/02 10:25:21;;;;;;;15.07;8.63;;;5.20;99.90;;;;;;6161220;23;20009;-91
2023/03/02 10:27:54;;;;;;;11.63;8.45;;;5.20;99.90;;;;;;6160513;23;20028;-93
2023/03/02 10:30:32;;;;;;;13.13;8.38;;;5.20;99.90;;;;;;6160312;23;20019;-93
2023/03/02 10:33:10;;;;;;;10.00;5.88;;;5.30;99.90;;;;;;6154358;23;20428;-91
2023/03/02 10:35:39;;;;;;;8.80;5.72;;;5.30;99.90;;;;;;6160856;23;20009;-93
2023/03/02 10:38:23;;;;;;;9.52;5.90;;;5.30;99.90;;;;;;6161007;23;20065;-92
2023/03/02 10:40:55;;;;;;;14.35;6.35;;;5.30;99.90;;;;;;6160548;23;20428;-90
2023/03/02 10:43:44;;;;;;;9.70;7.07;;;5.30;99.90;;;;;;6160509;23;20001;-93
2023/03/02 10:46:13;;;;;;;8.15;6.28;;;5.30;99.90;;;;;;6166781;23;19997;-93
2023/03/02 10:49:00;;;;;;;9.65;6.00;;;5.40;99.90;;;;;;6169568;23;20005;-94
2023/03/02 10:51:31;;;;;;;7.80;5.05;;;5.40;99.90;;;;;;6185317;23;20016;-93
2023/03/02 10:54:11;;;;;;;7.75;5.70;;;5.40;99.90;;;;;;6188525;23;20478;-93
2023/03/02 10:56:37;;;;;;;9.18;5.78;;;5.50;99.90;;;;;;6160657;23;20020;-92
2023/03/02 10:59:33;;;;;;;11.63;7.28;;;5.50;99.90;;;;;;6160453;23;20012;-93
2023/03/02 11:02:16;;;;;;;10.48;6.93;;;5.50;99.90;;;;;;6160048;23;20009;-92
2023/03/02 11:04:42;;;;;;;10.80;7.55;;;5.50;99.90;;;;;;6160477;23;20020;-93
2023/03/02 11:07:20;;;;;;;11.32;7.15;;;5.60;99.90;;;;;;6160421;23;20008;-92
2023/03/02 11:10:19;;;;;;;9.00;6.68;;;5.60;99.90;;;;;;6160300;23;20027;-91
2023/03/02 11:12:48;;;;;;;8.32;6.50;;;5.60;99.90;;;;;;6163996;23;20082;-93
2023/03/02 11:15:33;;;;;;;9.80;6.57;;;5.60;99.90;;;;;;6160820;23;20001;-93
2023/03/02 11:18:17;;;;;;;10.07;6.28;;;5.60;99.90;;;;;;6161737;23;20056;-91
2023/03/02 11:20:48;;;;;;;9.43;6.45;;;5.60;99.90;;;;;;6161942;23;20005;-92
2023/03/02 11:23:30;;;;;;;12.93;6.72;;;5.60;99.90;;;;;;6161521;23;20009;-92
2023/03/02 11:26:05;;;;;;;10.40;7.13;;;5.60;99.90;;;;;;6161300;23;20087;-93
2023/03/02 11:28:47;;;;;;;10.65;7.68;;;5.60;99.90;;;;;;6161174;23;20005;-93
2023/03/02 11:31:21;;;;;;;12.52;7.43;;;5.70;99.90;;;;;;6164227;23;20009;-93
2023/03/02 11:34:16;;;;;;;10.50;7.68;;;5.70;99.90;;;;;;6163988;23;20035;-93
2023/03/02 11:36:49;;;;;;;11.10;7.53;;;5.80;99.90;;;;;;6165351;23;20008;-93
2023/03/02 11:39:21;;;;;;;16.00;8.77;;;5.80;99.90;;;;;;6164349;23;20008;-93
2023/03/02 11:41:47;;;;;;;10.35;7.25;;;5.90;99.90;;;;;;6163427;23;20040;-93
2023/03/02 11:44:12;;;;;;;10.27;7.50;;;5.90;99.90;;;;;;6164370;23;20339;-92
2023/03/02 11:46:38;;;;;;;15.45;8.27;;;5.90;99.90;;;;;;6163032;23;20365;-92
2023/03/02 11:49:12;;;;;;;17.38;7.53;;;5.90;99.90;;;;;;6161440;23;20017;-92
2023/03/02 11:51:43;;;;;;;11.75;7.30;;;5.90;99.90;;;;;;6161209;23;20012;-94
2023/03/02 11:54:28;;;;;;;12.48;6.90;;;6.00;99.90;;;;;;6160643;23;20013;-93
2023/03/02 11:56:54;;;;;;;13.88;7.20;;;6.00;99.90;;;;;;6160446;23;20060;-92
2023/03/02 11:59:22;;;;;;;8.73;6.75;;;6.00;99.90;;;;;;6159029;23;20036;-93
2023/03/02 12:01:51;;;;;;;12.45;7.80;;;6.10;99.90;;;;;;6160239;23;20088;-91
2023/03/02 12:04:31;;;;;;;8.73;6.93;;;6.10;99.90;;;;;;6160687;23;20013;-92
2023/03/02 12:07:03;;;;;;;11.70;7.53;;;6.20;99.90;;;;;;6160928;23;20244;-92
2023/03/02 12:09:34;;;;;;;8.73;5.72;;;6.20;99.90;;;;;;6154423;23;20017;-92
2023/03/02 12:12:14;;;;;;;10.48;6.75;;;6.20;99.90;;;;;;6160899;23;20025;-92
2023/03/02 12:14:42;;;;;;;10.57;6.65;;;6.10;99.90;;;;;;6162068;23;20009;-92
2023/03/02 12:17:29;;;;;;;12.15;7.28;;;6.10;99.90;;;;;;6161633;23;20013;-93
2023/03/02 12:20:19;;;;;;;7.70;6.40;;;6.10;99.90;;;;;;6165060;23;20005;-93
2023/03/02 12:22:45;;;;;;;8.87;6.90;;;6.10;99.90;;;;;;6161934;23;20009;-93
2023/03/02 12:25:20;;;;;;;12.35;7.13;;;6.10;99.90;;;;;;6161581;23;20256;-92
2023/03/02 12:27:48;;;;;;;9.65;7.32;;;6.10;99.90;;;;;;6162031;23;20013;-93
2023/03/02 12:30:22;;;;;;;11.32;6.78;;;6.20;99.90;;;;;;6176223;23;20008;-93
2023/03/02 12:33:01;;;;;;;13.50;7.70;;;6.20;99.90;;;;;;6164823;23;20095;-93
2023/03/02 12:35:30;;;;;;;12.13;7.38;;;6.40;99.90;;;;;;6161754;23;20462;-93
2023/03/02 12:38:23;;;;;;;13.95;9.00;;;6.50;99.90;;;;;;6162418;23;20064;-93
2023/03/02 12:41:17;;;;;;;12.68;8.48;;;6.50;99.90;;;;;;6169083;23;20039;-92
2023/03/02 12:43:50;;;;;;;14.95;7.75;;;6.60;99.90;;;;;;6169407;23;20070;-93
2023/03/02 12:46:18;;;;;;;13.07;8.23;;;6.70;99.90;;;;;;6161663;23;20001;-93
2023/03/02 12:49:15;;;;;;;12.85;9.27;;;6.70;99.90;;;;;;6161622;23;20096;-94
2023/03/02 12:51:44;;;;;;;15.68;9.00;;;6.80;99.90;;;;;;6161365;23;20051;-93
2023/03/02 12:54:16;;;;;;;14.25;8.98;;;6.70;99.90;;;;;;6161382;23;20001;-93
2023/03/02 12:56:42;;;;;;;13.48;9.38;;;6.70;99.90;;;;;;6161879;23;20036;-93
2023/03/02 12:59:23;;;;;;;11.98;9.52;;;6.80;99.90;;;;;;6161303;23;20032;-93
2023/03/02 13:01:49;;;;;;;11.00;7.10;;;6.70;99.90;;;;;;6161304;23;20012;-94